sensor_id;sensor_type;location;lat;lon;timestamp;temperature;humidity
7360;DHT22;3720;48.274;7.796;2023-01-13T00:00:49;11.60;99.90
7360;DHT22;3720;48.274;7.796;2023-01-13T00:03:21;11.60;99.90
7360;DHT22;3720;48.274;7.796;2023-01-13T00:05:53;11.60;99.90
7360;DHT22;3720;48.274;7.796;2023-01-13T00:08:25;11.60;99.90
7360;DHT22;3720;48.274;7.796;2023-01-13T00:10:57;11.50;99.90
7360;DHT22;3720;48.274;7.796;2023-01-13T00:13:29;11.50;99.90
7360;DHT22;3720;48.274;7.796;2023-01-13T00:16:10;11.40;99.90
7360;DHT22;3720;48.274;7.796;2023-01-13T00:18:42;11.50;99.90
7360;DHT22;3720;48.274;7.796;2023-01-13T00:21:16;11.50;99.90
7360;DHT22;3720;48.274;7.796;2023-01-13T00:23:49;11.50;99.90
7360;DHT22;3720;48.274;7.796;2023-01-13T00:26:24;11.60;99.90
7360;DHT22;3720;48.274;7.796;2023-01-13T00:28:56;11.60;99.90
7360;DHT22;3720;48.274;7.796;2023-01-13T00:31:30;11.60;99.90
7360;DHT22;3720;48.274;7.796;2023-01-13T00:34:01;11.60;99.90
7360;DHT22;3720;48.274;7.796;2023-01-13T00:36:33;11.60;99.90
7360;DHT22;3720;48.274;7.796;2023-01-13T00:39:05;11.60;99.90
7360;DHT22;3720;48.274;7.796;2023-01-13T00:41:37;11.60;99.90
7360;DHT22;3720;48.274;7.796;2023-01-13T00:44:26;11.60;99.90
7360;DHT22;3720;48.274;7.796;2023-01-13T00:47:00;11.60;99.90
7360;DHT22;3720;48.274;7.796;2023-01-13T00:49:32;11.60;99.90
7360;DHT22;3720;48.274;7.796;2023-01-13T00:52:04;11.50;99.90
7360;DHT22;3720;48.274;7.796;2023-01-13T00:54:36;11.50;99.90
7360;DHT22;3720;48.274;7.796;2023-01-13T00:57:08;11.40;99.90
7360;DHT22;3720;48.274;7.796;2023-01-13T00:59:40;11.40;99.90
7360;DHT22;3720;48.274;7.796;2023-01-13T01:02:13;11.40;99.90
7360;DHT22;3720;48.274;7.796;2023-01-13T01:04:45;11.40;99.90
7360;DHT22;3720;48.274;7.796;2023-01-13T01:07:17;11.40;99.90
7360;DHT22;3720;48.274;7.796;2023-01-13T01:09:49;11.50;99.90
7360;DHT22;3720;48.274;7.796;2023-01-13T01:12:21;11.50;99.90
7360;DHT22;3720;48.274;7.796;2023-01-13T01:14:53;11.50;99.90
7360;DHT22;3720;48.274;7.796;2023-01-13T01:17:27;11.60;99.90
7360;DHT22;3720;48.274;7.796;2023-01-13T01:19:58;11.60;99.90
7360;DHT22;3720;48.274;7.796;2023-01-13T01:22:30;11.60;99.90
7360;DHT22;3720;48.274;7.796;2023-01-13T01:25:03;11.60;99.90
7360;DHT22;3720;48.274;7.796;2023-01-13T01:27:35;11.60;99.90
7360;DHT22;3720;48.274;7.796;2023-01-13T01:30:08;11.60;99.90
7360;DHT22;3720;48.274;7.796;2023-01-13T01:32:42;11.60;99.90
7360;DHT22;3720;48.274;7.796;2023-01-13T01:35:14;11.60;99.90
7360;DHT22;3720;48.274;7.796;2023-01-13T01:37:46;11.50;99.90
7360;DHT22;3720;48.274;7.796;2023-01-13T01:40:18;11.60;99.90
7360;DHT22;3720;48.274;7.796;2023-01-13T01:42:50;11.50;99.90
7360;DHT22;3720;48.274;7.796;2023-01-13T01:45:39;11.60;99.90
7360;DHT22;3720;48.274;7.796;2023-01-13T01:48:13;11.60;99.90
7360;DHT22;3720;48.274;7.796;2023-01-13T01:50:45;11.60;99.90
7360;DHT22;3720;48.274;7.796;2023-01-13T01:53:18;11.50;99.90
7360;DHT22;3720;48.274;7.796;2023-01-13T01:55:53;11.50;99.90
7360;DHT22;3720;48.274;7.796;2023-01-13T01:58:29;11.50;99.90
7360;DHT22;3720;48.274;7.796;2023-01-13T02:01:01;11.50;99.90
7360;DHT22;3720;48.274;7.796;2023-01-13T02:03:37;11.50;99.90
7360;DHT22;3720;48.274;7.796;2023-01-13T02:06:11;11.40;99.90
7360;DHT22;3720;48.274;7.796;2023-01-13T02:08:45;11.50;99.90
7360;DHT22;3720;48.274;7.796;2023-01-13T02:11:26;11.40;99.90
7360;DHT22;3720;48.274;7.796;2023-01-13T02:14:12;11.40;99.90
7360;DHT22;3720;48.274;7.796;2023-01-13T02:16:51;11.40;99.90
7360;DHT22;3720;48.274;7.796;2023-01-13T02:19:51;11.40;99.90
7360;DHT22;3720;48.274;7.796;2023-01-13T02:22:45;11.40;99.90
7360;DHT22;3720;48.274;7.796;2023-01-13T02:25:47;11.30;99.90
7360;DHT22;3720;48.274;7.796;2023-01-13T02:28:38;11.30;99.90
7360;DHT22;3720;48.274;7.796;2023-01-13T02:31:41;11.30;99.90
7360;DHT22;3720;48.274;7.796;2023-01-13T02:34:16;11.20;99.90
7360;DHT22;3720;48.274;7.796;2023-01-13T02:36:55;11.20;99.90
7360;DHT22;3720;48.274;7.796;2023-01-13T02:39:33;11.20;99.90
7360;DHT22;3720;48.274;7.796;2023-01-13T02:42:10;11.20;99.90
7360;DHT22;3720;48.274;7.796;2023-01-13T02:45:03;11.20;99.90
7360;DHT22;3720;48.274;7.796;2023-01-13T02:47:41;11.10;99.90
7360;DHT22;3720;48.274;7.796;2023-01-13T02:50:18;11.10;99.90
7360;DHT22;3720;48.274;7.796;2023-01-13T02:52:53;11.10;99.90
7360;DHT22;3720;48.274;7.796;2023-01-13T02:55:31;11.00;99.90
7360;DHT22;3720;48.274;7.796;2023-01-13T02:58:06;11.00;99.90
7360;DHT22;3720;48.274;7.796;2023-01-13T03:00:40;11.00;99.90
7360;DHT22;3720;48.274;7.796;2023-01-13T03:03:14;11.00;99.90
7360;DHT22;3720;48.274;7.796;2023-01-13T03:05:49;11.00;99.90
7360;DHT22;3720;48.274;7.796;2023-01-13T03:08:31;11.00;99.90
7360;DHT22;3720;48.274;7.796;2023-01-13T03:11:06;11.00;99.90
7360;DHT22;3720;48.274;7.796;2023-01-13T03:13:55;10.90;99.90
7360;DHT22;3720;48.274;7.796;2023-01-13T03:19:23;10.90;99.90
7360;DHT22;3720;48.274;7.796;2023-01-13T03:22:00;10.90;99.90
7360;DHT22;3720;48.274;7.796;2023-01-13T03:24:35;10.90;99.90
7360;DHT22;3720;48.274;7.796;2023-01-13T03:27:13;10.90;99.90
7360;DHT22;3720;48.274;7.796;2023-01-13T03:29:50;10.80;99.90
7360;DHT22;3720;48.274;7.796;2023-01-13T03:32:28;10.80;99.90
7360;DHT22;3720;48.274;7.796;2023-01-13T03:35:08;10.80;99.90
7360;DHT22;3720;48.274;7.796;2023-01-13T03:37:45;10.80;99.90
7360;DHT22;3720;48.274;7.796;2023-01-13T03:40:21;10.80;99.90
7360;DHT22;3720;48.274;7.796;2023-01-13T03:42:59;10.80;99.90
7360;DHT22;3720;48.274;7.796;2023-01-13T03:45:53;10.70;99.90
7360;DHT22;3720;48.274;7.796;2023-01-13T03:48:26;10.70;99.90
7360;DHT22;3720;48.274;7.796;2023-01-13T03:51:05;10.80;99.90
7360;DHT22;3720;48.274;7.796;2023-01-13T03:53:38;10.70;99.90
7360;DHT22;3720;48.274;7.796;2023-01-13T03:56:20;10.70;99.90
7360;DHT22;3720;48.274;7.796;2023-01-13T03:58:56;10.70;99.90
7360;DHT22;3720;48.274;7.796;2023-01-13T04:01:36;10.70;99.90
7360;DHT22;3720;48.274;7.796;2023-01-13T04:04:16;10.70;99.90
7360;DHT22;3720;48.274;7.796;2023-01-13T04:06:55;10.70;99.90
7360;DHT22;3720;48.274;7.796;2023-01-13T04:09:32;10.70;99.90
7360;DHT22;3720;48.274;7.796;2023-01-13T04:12:09;10.70;99.90
7360;DHT22;3720;48.274;7.796;2023-01-13T04:14:42;10.70;99.90
7360;DHT22;3720;48.274;7.796;2023-01-13T04:17:15;10.60;99.90
7360;DHT22;3720;48.274;7.796;2023-01-13T04:19:47;10.70;99.90
7360;DHT22;3720;48.274;7.796;2023-01-13T04:22:21;10.70;99.90
7360;DHT22;3720;48.274;7.796;2023-01-13T04:24:53;10.70;99.90
7360;DHT22;3720;48.274;7.796;2023-01-13T04:27:24;10.70;99.90
7360;DHT22;3720;48.274;7.796;2023-01-13T04:29:56;10.70;99.90
7360;DHT22;3720;48.274;7.796;2023-01-13T04:32:28;10.70;99.90
7360;DHT22;3720;48.274;7.796;2023-01-13T04:35:00;10.70;99.90
7360;DHT22;3720;48.274;7.796;2023-01-13T04:37:34;10.70;99.90
7360;DHT22;3720;48.274;7.796;2023-01-13T04:40:08;10.70;99.90
7360;DHT22;3720;48.274;7.796;2023-01-13T04:42:42;10.70;99.90
7360;DHT22;3720;48.274;7.796;2023-01-13T04:45:14;10.70;99.90
7360;DHT22;3720;48.274;7.796;2023-01-13T04:47:46;10.70;99.90
7360;DHT22;3720;48.274;7.796;2023-01-13T04:50:18;10.70;99.90
7360;DHT22;3720;48.274;7.796;2023-01-13T04:52:52;10.70;99.90
7360;DHT22;3720;48.274;7.796;2023-01-13T04:55:24;10.70;99.90
7360;DHT22;3720;48.274;7.796;2023-01-13T04:58:01;10.70;99.90
7360;DHT22;3720;48.274;7.796;2023-01-13T05:00:34;10.70;99.90
7360;DHT22;3720;48.274;7.796;2023-01-13T05:03:06;10.70;99.90
7360;DHT22;3720;48.274;7.796;2023-01-13T05:05:38;10.70;99.90
7360;DHT22;3720;48.274;7.796;2023-01-13T05:08:11;10.70;99.90
7360;DHT22;3720;48.274;7.796;2023-01-13T05:10:43;10.70;99.90
7360;DHT22;3720;48.274;7.796;2023-01-13T05:13:15;10.70;99.90
7360;DHT22;3720;48.274;7.796;2023-01-13T05:16:07;10.60;99.90
7360;DHT22;3720;48.274;7.796;2023-01-13T05:18:57;10.70;99.90
7360;DHT22;3720;48.274;7.796;2023-01-13T05:21:29;10.60;99.90
7360;DHT22;3720;48.274;7.796;2023-01-13T05:24:20;10.60;99.90
7360;DHT22;3720;48.274;7.796;2023-01-13T05:27:09;10.60;99.90
7360;DHT22;3720;48.274;7.796;2023-01-13T05:29:41;10.60;99.90
7360;DHT22;3720;48.274;7.796;2023-01-13T05:32:13;10.50;99.90
7360;DHT22;3720;48.274;7.796;2023-01-13T05:34:44;10.50;99.90
7360;DHT22;3720;48.274;7.796;2023-01-13T05:37:16;10.50;99.90
7360;DHT22;3720;48.274;7.796;2023-01-13T05:39:50;10.50;99.90
7360;DHT22;3720;48.274;7.796;2023-01-13T05:42:39;10.40;99.90
7360;DHT22;3720;48.274;7.796;2023-01-13T05:45:29;10.30;99.90
7360;DHT22;3720;48.274;7.796;2023-01-13T05:48:01;10.30;99.90
7360;DHT22;3720;48.274;7.796;2023-01-13T05:50:33;10.30;99.90
7360;DHT22;3720;48.274;7.796;2023-01-13T05:53:04;10.30;99.90
7360;DHT22;3720;48.274;7.796;2023-01-13T05:55:39;10.30;99.90
7360;DHT22;3720;48.274;7.796;2023-01-13T05:58:12;10.30;99.90
7360;DHT22;3720;48.274;7.796;2023-01-13T06:00:44;10.20;99.90
7360;DHT22;3720;48.274;7.796;2023-01-13T06:03:17;10.20;99.90
7360;DHT22;3720;48.274;7.796;2023-01-13T06:05:50;10.20;99.90
7360;DHT22;3720;48.274;7.796;2023-01-13T06:08:28;10.20;99.90
7360;DHT22;3720;48.274;7.796;2023-01-13T06:11:01;10.20;99.90
7360;DHT22;3720;48.274;7.796;2023-01-13T06:13:33;10.20;99.90
7360;DHT22;3720;48.274;7.796;2023-01-13T06:16:05;10.20;99.90
7360;DHT22;3720;48.274;7.796;2023-01-13T06:18:38;10.20;99.90
7360;DHT22;3720;48.274;7.796;2023-01-13T06:21:09;10.20;99.90
7360;DHT22;3720;48.274;7.796;2023-01-13T06:23:41;10.20;99.90
7360;DHT22;3720;48.274;7.796;2023-01-13T06:26:18;10.20;99.90
7360;DHT22;3720;48.274;7.796;2023-01-13T06:28:50;10.20;99.90
7360;DHT22;3720;48.274;7.796;2023-01-13T06:31:22;10.20;99.90
7360;DHT22;3720;48.274;7.796;2023-01-13T06:33:57;10.20;99.90
7360;DHT22;3720;48.274;7.796;2023-01-13T06:36:34;10.20;99.90
7360;DHT22;3720;48.274;7.796;2023-01-13T06:39:09;10.30;99.90
7360;DHT22;3720;48.274;7.796;2023-01-13T06:41:43;10.30;99.90
7360;DHT22;3720;48.274;7.796;2023-01-13T06:44:33;10.30;99.90
7360;DHT22;3720;48.274;7.796;2023-01-13T06:47:06;10.30;99.90
7360;DHT22;3720;48.274;7.796;2023-01-13T06:49:38;10.40;99.90
7360;DHT22;3720;48.274;7.796;2023-01-13T06:52:10;10.40;99.90
7360;DHT22;3720;48.274;7.796;2023-01-13T06:54:42;10.40;99.90
7360;DHT22;3720;48.274;7.796;2023-01-13T06:57:15;10.40;99.90
7360;DHT22;3720;48.274;7.796;2023-01-13T06:59:47;10.40;99.90
7360;DHT22;3720;48.274;7.796;2023-01-13T07:02:19;10.40;99.90
7360;DHT22;3720;48.274;7.796;2023-01-13T07:04:51;10.50;99.90
7360;DHT22;3720;48.274;7.796;2023-01-13T07:07:23;10.50;99.90
7360;DHT22;3720;48.274;7.796;2023-01-13T07:09:54;10.50;99.90
7360;DHT22;3720;48.274;7.796;2023-01-13T07:12:28;10.50;99.90
7360;DHT22;3720;48.274;7.796;2023-01-13T07:15:00;10.50;99.90
7360;DHT22;3720;48.274;7.796;2023-01-13T07:17:54;10.50;99.90
7360;DHT22;3720;48.274;7.796;2023-01-13T07:20:27;10.60;99.90
7360;DHT22;3720;48.274;7.796;2023-01-13T07:22:59;10.50;99.90
7360;DHT22;3720;48.274;7.796;2023-01-13T07:25:32;10.60;99.90
7360;DHT22;3720;48.274;7.796;2023-01-13T07:28:05;10.60;99.90
7360;DHT22;3720;48.274;7.796;2023-01-13T07:30:37;10.60;99.90
7360;DHT22;3720;48.274;7.796;2023-01-13T07:33:09;10.60;99.90
7360;DHT22;3720;48.274;7.796;2023-01-13T07:35:41;10.60;99.90
7360;DHT22;3720;48.274;7.796;2023-01-13T07:38:13;10.70;99.90
7360;DHT22;3720;48.274;7.796;2023-01-13T07:40:46;10.70;99.90
7360;DHT22;3720;48.274;7.796;2023-01-13T07:43:19;10.70;99.90
7360;DHT22;3720;48.274;7.796;2023-01-13T07:46:04;10.60;99.90
7360;DHT22;3720;48.274;7.796;2023-01-13T07:48:36;10.60;99.90
7360;DHT22;3720;48.274;7.796;2023-01-13T07:51:10;10.60;99.90
7360;DHT22;3720;48.274;7.796;2023-01-13T07:53:42;10.60;99.90
7360;DHT22;3720;48.274;7.796;2023-01-13T07:56:14;10.60;99.90
7360;DHT22;3720;48.274;7.796;2023-01-13T07:58:48;10.50;99.90
7360;DHT22;3720;48.274;7.796;2023-01-13T08:01:22;10.40;99.90
7360;DHT22;3720;48.274;7.796;2023-01-13T08:03:54;10.40;99.90
7360;DHT22;3720;48.274;7.796;2023-01-13T08:06:28;10.40;99.90
7360;DHT22;3720;48.274;7.796;2023-01-13T08:09:00;10.40;99.90
7360;DHT22;3720;48.274;7.796;2023-01-13T08:11:32;10.40;99.90
7360;DHT22;3720;48.274;7.796;2023-01-13T08:14:05;10.40;99.90
7360;DHT22;3720;48.274;7.796;2023-01-13T08:16:37;10.30;99.90
7360;DHT22;3720;48.274;7.796;2023-01-13T08:19:09;10.30;99.90
7360;DHT22;3720;48.274;7.796;2023-01-13T08:21:40;10.40;99.90
7360;DHT22;3720;48.274;7.796;2023-01-13T08:24:12;10.40;99.90
7360;DHT22;3720;48.274;7.796;2023-01-13T08:26:44;10.50;99.90
7360;DHT22;3720;48.274;7.796;2023-01-13T08:29:18;10.40;99.90
7360;DHT22;3720;48.274;7.796;2023-01-13T08:31:50;10.50;99.90
7360;DHT22;3720;48.274;7.796;2023-01-13T08:34:21;10.60;99.90
7360;DHT22;3720;48.274;7.796;2023-01-13T08:36:53;10.60;99.90
7360;DHT22;3720;48.274;7.796;2023-01-13T08:39:25;10.60;99.90
7360;DHT22;3720;48.274;7.796;2023-01-13T08:41:57;10.50;99.90
7360;DHT22;3720;48.274;7.796;2023-01-13T08:44:31;10.60;99.90
7360;DHT22;3720;48.274;7.796;2023-01-13T08:47:03;10.60;99.90
7360;DHT22;3720;48.274;7.796;2023-01-13T08:49:36;10.60;99.90
7360;DHT22;3720;48.274;7.796;2023-01-13T08:52:08;10.60;99.90
7360;DHT22;3720;48.274;7.796;2023-01-13T08:54:40;10.60;99.90
7360;DHT22;3720;48.274;7.796;2023-01-13T08:57:13;10.60;99.90
7360;DHT22;3720;48.274;7.796;2023-01-13T08:59:46;10.70;99.90
7360;DHT22;3720;48.274;7.796;2023-01-13T09:02:20;10.70;99.90
7360;DHT22;3720;48.274;7.796;2023-01-13T09:04:53;10.70;99.90
7360;DHT22;3720;48.274;7.796;2023-01-13T09:07:25;10.70;99.90
7360;DHT22;3720;48.274;7.796;2023-01-13T09:09:57;10.80;99.90
7360;DHT22;3720;48.274;7.796;2023-01-13T09:12:28;10.80;99.90
7360;DHT22;3720;48.274;7.796;2023-01-13T09:15:19;10.80;99.90
7360;DHT22;3720;48.274;7.796;2023-01-13T09:17:51;10.90;99.90
7360;DHT22;3720;48.274;7.796;2023-01-13T09:20:23;10.90;99.90
7360;DHT22;3720;48.274;7.796;2023-01-13T09:22:55;11.00;99.90
7360;DHT22;3720;48.274;7.796;2023-01-13T09:25:27;10.90;99.90
7360;DHT22;3720;48.274;7.796;2023-01-13T09:27:58;11.00;99.90
7360;DHT22;3720;48.274;7.796;2023-01-13T09:30:32;11.10;99.90
7360;DHT22;3720;48.274;7.796;2023-01-13T09:33:04;11.10;99.90
7360;DHT22;3720;48.274;7.796;2023-01-13T09:35:56;11.10;99.90
7360;DHT22;3720;48.274;7.796;2023-01-13T09:38:28;11.10;99.90
7360;DHT22;3720;48.274;7.796;2023-01-13T09:41:00;11.10;99.90
7360;DHT22;3720;48.274;7.796;2023-01-13T09:43:55;11.10;99.90
7360;DHT22;3720;48.274;7.796;2023-01-13T09:46:33;11.10;99.90
7360;DHT22;3720;48.274;7.796;2023-01-13T09:49:20;11.20;99.90
7360;DHT22;3720;48.274;7.796;2023-01-13T09:51:56;11.30;99.90
7360;DHT22;3720;48.274;7.796;2023-01-13T09:54:32;11.30;99.90
7360;DHT22;3720;48.274;7.796;2023-01-13T09:57:09;11.40;99.90
7360;DHT22;3720;48.274;7.796;2023-01-13T09:59:42;11.50;99.90
7360;DHT22;3720;48.274;7.796;2023-01-13T10:02:38;11.50;99.90
7360;DHT22;3720;48.274;7.796;2023-01-13T10:05:21;11.60;99.90
7360;DHT22;3720;48.274;7.796;2023-01-13T10:07:58;11.60;99.90
7360;DHT22;3720;48.274;7.796;2023-01-13T10:10:37;11.60;99.90
7360;DHT22;3720;48.274;7.796;2023-01-13T10:13:16;11.70;99.90
7360;DHT22;3720;48.274;7.796;2023-01-13T10:15:58;11.70;99.90
7360;DHT22;3720;48.274;7.796;2023-01-13T10:18:41;11.60;99.90
7360;DHT22;3720;48.274;7.796;2023-01-13T10:21:29;11.60;99.90
7360;DHT22;3720;48.274;7.796;2023-01-13T10:24:12;11.60;99.90
7360;DHT22;3720;48.274;7.796;2023-01-13T10:26:52;11.60;99.90
7360;DHT22;3720;48.274;7.796;2023-01-13T10:29:28;11.50;99.90
7360;DHT22;3720;48.274;7.796;2023-01-13T10:32:01;11.60;99.90
7360;DHT22;3720;48.274;7.796;2023-01-13T10:34:44;11.50;99.90
7360;DHT22;3720;48.274;7.796;2023-01-13T10:37:22;11.50;99.90
7360;DHT22;3720;48.274;7.796;2023-01-13T10:39:56;11.50;99.90
7360;DHT22;3720;48.274;7.796;2023-01-13T10:42:31;11.40;99.90
7360;DHT22;3720;48.274;7.796;2023-01-13T10:45:04;11.20;99.90
7360;DHT22;3720;48.274;7.796;2023-01-13T10:47:37;10.60;99.90
7360;DHT22;3720;48.274;7.796;2023-01-13T10:50:23;10.00;99.90
7360;DHT22;3720;48.274;7.796;2023-01-13T10:52:58;9.40;99.90
7360;DHT22;3720;48.274;7.796;2023-01-13T10:55:32;9.20;99.90
7360;DHT22;3720;48.274;7.796;2023-01-13T10:58:15;9.10;99.90
7360;DHT22;3720;48.274;7.796;2023-01-13T11:00:48;9.10;99.90
7360;DHT22;3720;48.274;7.796;2023-01-13T11:03:39;9.10;99.90
7360;DHT22;3720;48.274;7.796;2023-01-13T11:06:21;9.20;99.90
7360;DHT22;3720;48.274;7.796;2023-01-13T11:08:55;9.20;99.90
7360;DHT22;3720;48.274;7.796;2023-01-13T11:11:40;9.20;99.90
7360;DHT22;3720;48.274;7.796;2023-01-13T11:14:18;9.30;99.90
7360;DHT22;3720;48.274;7.796;2023-01-13T11:17:27;9.30;99.90
7360;DHT22;3720;48.274;7.796;2023-01-13T11:20:11;9.40;99.90
7360;DHT22;3720;48.274;7.796;2023-01-13T11:22:49;9.50;99.90
7360;DHT22;3720;48.274;7.796;2023-01-13T11:25:24;9.60;99.90
7360;DHT22;3720;48.274;7.796;2023-01-13T11:28:05;9.70;99.90
7360;DHT22;3720;48.274;7.796;2023-01-13T11:30:49;9.80;99.90
7360;DHT22;3720;48.274;7.796;2023-01-13T11:33:36;9.90;99.90
7360;DHT22;3720;48.274;7.796;2023-01-13T11:36:12;10.40;99.90
7360;DHT22;3720;48.274;7.796;2023-01-13T11:38:50;10.80;99.90
7360;DHT22;3720;48.274;7.796;2023-01-13T11:41:29;11.10;99.90
7360;DHT22;3720;48.274;7.796;2023-01-13T11:44:15;11.60;99.90
7360;DHT22;3720;48.274;7.796;2023-01-13T11:46:49;12.10;99.90
7360;DHT22;3720;48.274;7.796;2023-01-13T11:49:25;12.60;99.90
7360;DHT22;3720;48.274;7.796;2023-01-13T11:52:02;12.50;99.90
7360;DHT22;3720;48.274;7.796;2023-01-13T11:55:03;12.40;99.90
7360;DHT22;3720;48.274;7.796;2023-01-13T11:58:00;12.10;99.90
7360;DHT22;3720;48.274;7.796;2023-01-13T12:03:35;11.80;99.90
7360;DHT22;3720;48.274;7.796;2023-01-13T12:06:20;11.70;99.90
7360;DHT22;3720;48.274;7.796;2023-01-13T12:09:05;11.60;99.90
7360;DHT22;3720;48.274;7.796;2023-01-13T12:11:55;11.50;99.90
7360;DHT22;3720;48.274;7.796;2023-01-13T12:17:46;11.60;99.90
7360;DHT22;3720;48.274;7.796;2023-01-13T12:20:31;11.50;99.90
7360;DHT22;3720;48.274;7.796;2023-01-13T12:23:10;11.60;99.90
7360;DHT22;3720;48.274;7.796;2023-01-13T12:25:50;11.60;99.90
7360;DHT22;3720;48.274;7.796;2023-01-13T12:28:27;11.80;99.90
7360;DHT22;3720;48.274;7.796;2023-01-13T12:31:01;11.90;99.90
7360;DHT22;3720;48.274;7.796;2023-01-13T12:33:43;12.20;99.90
7360;DHT22;3720;48.274;7.796;2023-01-13T12:36:22;12.50;99.90
7360;DHT22;3720;48.274;7.796;2023-01-13T12:38:57;12.50;99.90
7360;DHT22;3720;48.274;7.796;2023-01-13T12:41:37;12.50;99.90
7360;DHT22;3720;48.274;7.796;2023-01-13T12:44:33;12.60;99.90
7360;DHT22;3720;48.274;7.796;2023-01-13T12:47:04;12.50;99.90
7360;DHT22;3720;48.274;7.796;2023-01-13T12:50:38;12.70;99.90
7360;DHT22;3720;48.274;7.796;2023-01-13T12:53:35;13.10;99.90
7360;DHT22;3720;48.274;7.796;2023-01-13T12:56:38;13.40;99.90
7360;DHT22;3720;48.274;7.796;2023-01-13T12:59:33;13.60;99.90
7360;DHT22;3720;48.274;7.796;2023-01-13T13:02:30;13.70;99.90
7360;DHT22;3720;48.274;7.796;2023-01-13T13:08:20;13.60;99.90
7360;DHT22;3720;48.274;7.796;2023-01-13T13:11:00;13.60;99.90
7360;DHT22;3720;48.274;7.796;2023-01-13T13:13:42;13.70;99.90
7360;DHT22;3720;48.274;7.796;2023-01-13T13:16:45;14.00;99.90
7360;DHT22;3720;48.274;7.796;2023-01-13T13:19:40;13.80;99.90
7360;DHT22;3720;48.274;7.796;2023-01-13T13:25:21;13.20;99.90
7360;DHT22;3720;48.274;7.796;2023-01-13T13:28:07;12.90;99.90
7360;DHT22;3720;48.274;7.796;2023-01-13T13:30:48;12.80;99.90
7360;DHT22;3720;48.274;7.796;2023-01-13T13:33:38;12.80;99.90
7360;DHT22;3720;48.274;7.796;2023-01-13T13:36:32;12.70;99.90
7360;DHT22;3720;48.274;7.796;2023-01-13T13:39:16;12.60;99.90
7360;DHT22;3720;48.274;7.796;2023-01-13T13:42:12;12.50;99.90
7360;DHT22;3720;48.274;7.796;2023-01-13T13:45:10;12.40;99.90
7360;DHT22;3720;48.274;7.796;2023-01-13T13:48:19;12.30;99.90
7360;DHT22;3720;48.274;7.796;2023-01-13T13:50:53;12.20;99.90
7360;DHT22;3720;48.274;7.796;2023-01-13T13:53:33;12.30;99.90
7360;DHT22;3720;48.274;7.796;2023-01-13T13:56:15;12.20;99.90
7360;DHT22;3720;48.274;7.796;2023-01-13T13:58:50;12.20;99.90
7360;DHT22;3720;48.274;7.796;2023-01-13T14:01:24;12.40;99.90
7360;DHT22;3720;48.274;7.796;2023-01-13T14:04:03;12.70;99.90
7360;DHT22;3720;48.274;7.796;2023-01-13T14:06:36;13.00;99.90
7360;DHT22;3720;48.274;7.796;2023-01-13T14:09:14;12.90;99.90
7360;DHT22;3720;48.274;7.796;2023-01-13T14:11:55;12.90;99.90
7360;DHT22;3720;48.274;7.796;2023-01-13T14:14:29;12.90;99.90
7360;DHT22;3720;48.274;7.796;2023-01-13T14:17:03;12.90;99.90
7360;DHT22;3720;48.274;7.796;2023-01-13T14:19:35;12.80;99.90
7360;DHT22;3720;48.274;7.796;2023-01-13T14:22:15;12.70;99.90
7360;DHT22;3720;48.274;7.796;2023-01-13T14:24:48;12.60;99.90
7360;DHT22;3720;48.274;7.796;2023-01-13T14:27:26;12.50;99.90
7360;DHT22;3720;48.274;7.796;2023-01-13T14:30:00;12.40;99.90
7360;DHT22;3720;48.274;7.796;2023-01-13T14:32:34;12.40;99.90
7360;DHT22;3720;48.274;7.796;2023-01-13T14:35:07;12.30;99.90
7360;DHT22;3720;48.274;7.796;2023-01-13T14:37:41;12.20;99.90
7360;DHT22;3720;48.274;7.796;2023-01-13T14:40:39;12.10;99.90
7360;DHT22;3720;48.274;7.796;2023-01-13T14:43:17;12.00;99.90
7360;DHT22;3720;48.274;7.796;2023-01-13T14:45:56;11.90;99.90
7360;DHT22;3720;48.274;7.796;2023-01-13T14:48:30;11.90;99.90
7360;DHT22;3720;48.274;7.796;2023-01-13T14:51:08;11.80;99.90
7360;DHT22;3720;48.274;7.796;2023-01-13T14:53:42;11.80;99.90
7360;DHT22;3720;48.274;7.796;2023-01-13T14:56:39;11.80;99.90
7360;DHT22;3720;48.274;7.796;2023-01-13T14:59:41;11.80;99.90
7360;DHT22;3720;48.274;7.796;2023-01-13T15:02:43;11.70;99.90
7360;DHT22;3720;48.274;7.796;2023-01-13T15:05:43;11.60;99.90
7360;DHT22;3720;48.274;7.796;2023-01-13T15:08:29;11.50;99.90
7360;DHT22;3720;48.274;7.796;2023-01-13T15:11:04;11.50;99.90
7360;DHT22;3720;48.274;7.796;2023-01-13T15:13:43;11.50;99.90
7360;DHT22;3720;48.274;7.796;2023-01-13T15:16:17;11.50;99.90
7360;DHT22;3720;48.274;7.796;2023-01-13T15:18:51;11.50;99.90
7360;DHT22;3720;48.274;7.796;2023-01-13T15:21:24;11.40;99.90
7360;DHT22;3720;48.274;7.796;2023-01-13T15:23:55;11.40;99.90
7360;DHT22;3720;48.274;7.796;2023-01-13T15:26:29;11.40;99.90
7360;DHT22;3720;48.274;7.796;2023-01-13T15:29:02;11.40;99.90
7360;DHT22;3720;48.274;7.796;2023-01-13T15:31:36;11.40;99.90
7360;DHT22;3720;48.274;7.796;2023-01-13T15:34:09;11.40;99.90
7360;DHT22;3720;48.274;7.796;2023-01-13T15:36:41;11.30;99.90
7360;DHT22;3720;48.274;7.796;2023-01-13T15:39:14;11.20;99.90
7360;DHT22;3720;48.274;7.796;2023-01-13T15:41:45;11.10;99.90
7360;DHT22;3720;48.274;7.796;2023-01-13T15:44:35;11.00;99.90
7360;DHT22;3720;48.274;7.796;2023-01-13T15:47:24;10.90;99.90
7360;DHT22;3720;48.274;7.796;2023-01-13T15:49:59;10.80;99.90
7360;DHT22;3720;48.274;7.796;2023-01-13T15:52:31;10.70;99.90
7360;DHT22;3720;48.274;7.796;2023-01-13T15:55:03;10.70;99.90
7360;DHT22;3720;48.274;7.796;2023-01-13T15:57:37;10.60;99.90
7360;DHT22;3720;48.274;7.796;2023-01-13T16:00:13;10.50;99.90
7360;DHT22;3720;48.274;7.796;2023-01-13T16:02:46;10.50;99.90
7360;DHT22;3720;48.274;7.796;2023-01-13T16:05:20;10.50;99.90
7360;DHT22;3720;48.274;7.796;2023-01-13T16:07:52;10.40;99.90
7360;DHT22;3720;48.274;7.796;2023-01-13T16:10:26;10.50;99.90
7360;DHT22;3720;48.274;7.796;2023-01-13T16:12:58;10.40;99.90
7360;DHT22;3720;48.274;7.796;2023-01-13T16:15:31;10.40;99.90
7360;DHT22;3720;48.274;7.796;2023-01-13T16:18:04;10.40;99.90
7360;DHT22;3720;48.274;7.796;2023-01-13T16:20:38;10.40;99.90
7360;DHT22;3720;48.274;7.796;2023-01-13T16:23:10;10.30;99.90
7360;DHT22;3720;48.274;7.796;2023-01-13T16:25:42;10.30;99.90
7360;DHT22;3720;48.274;7.796;2023-01-13T16:28:19;10.30;99.90
7360;DHT22;3720;48.274;7.796;2023-01-13T16:30:52;10.30;99.90
7360;DHT22;3720;48.274;7.796;2023-01-13T16:33:24;10.30;99.90
7360;DHT22;3720;48.274;7.796;2023-01-13T16:35:57;10.20;99.90
7360;DHT22;3720;48.274;7.796;2023-01-13T16:38:29;10.10;99.90
7360;DHT22;3720;48.274;7.796;2023-01-13T16:41:01;10.00;99.90
7360;DHT22;3720;48.274;7.796;2023-01-13T16:43:33;9.80;99.90
7360;DHT22;3720;48.274;7.796;2023-01-13T16:46:15;9.60;99.90
7360;DHT22;3720;48.274;7.796;2023-01-13T16:48:48;9.40;99.90
7360;DHT22;3720;48.274;7.796;2023-01-13T16:51:23;9.20;99.90
7360;DHT22;3720;48.274;7.796;2023-01-13T16:53:55;9.10;99.90
7360;DHT22;3720;48.274;7.796;2023-01-13T16:56:28;8.90;99.90
7360;DHT22;3720;48.274;7.796;2023-01-13T16:59:04;8.70;99.90
7360;DHT22;3720;48.274;7.796;2023-01-13T17:01:38;8.70;99.90
7360;DHT22;3720;48.274;7.796;2023-01-13T17:04:14;8.60;99.90
7360;DHT22;3720;48.274;7.796;2023-01-13T17:06:52;8.60;99.90
7360;DHT22;3720;48.274;7.796;2023-01-13T17:09:27;8.50;99.90
7360;DHT22;3720;48.274;7.796;2023-01-13T17:12:00;8.40;99.90
7360;DHT22;3720;48.274;7.796;2023-01-13T17:14:31;8.40;99.90
7360;DHT22;3720;48.274;7.796;2023-01-13T17:17:03;8.40;99.90
7360;DHT22;3720;48.274;7.796;2023-01-13T17:19:35;8.30;99.90
7360;DHT22;3720;48.274;7.796;2023-01-13T17:22:09;8.20;99.90